<?xml version='1.0' encoding='UTF-8'?>
<gpx version="1.1" creator="https://www.komoot.de" xmlns="http://www.topografix.com/GPX/1/1" xmlns:xsi="http://www.w3.org/2001/XMLSchema-instance" xsi:schemaLocation="http://www.topografix.com/GPX/1/1 http://www.topografix.com/GPX/1/1/gpx.xsd">
  <metadata>
    <name>Adlis laut 1</name>
    <author>
      <link href="https://www.komoot.de">
        <text>komoot</text>
        <type>text/html</type>
      </link>
    </author>
  </metadata>
  <trk>
    <name>Adlis laut 1</name>
    <trkseg>
      <trkpt lat="47.378487" lon="8.572486">
        <ele>601.637457</ele>
        <time>2022-05-03T08:59:42.000Z</time>
      </trkpt>
      <trkpt lat="47.378403" lon="8.572545">
        <ele>601.637457</ele>
        <time>2022-05-03T08:59:48.999Z</time>
      </trkpt>
      <trkpt lat="47.378379" lon="8.572682">
        <ele>601.637457</ele>
        <time>2022-05-03T08:59:55.999Z</time>
      </trkpt>
      <trkpt lat="47.378300" lon="8.572774">
        <ele>601.637457</ele>
        <time>2022-05-03T09:00:06.999Z</time>
      </trkpt>
      <trkpt lat="47.378208" lon="8.572872">
        <ele>601.637457</ele>
        <time>2022-05-03T09:00:19.999Z</time>
      </trkpt>
      <trkpt lat="47.378155" lon="8.573009">
        <ele>601.637457</ele>
        <time>2022-05-03T09:00:27.999Z</time>
      </trkpt>
      <trkpt lat="47.378116" lon="8.573144">
        <ele>601.637457</ele>
        <time>2022-05-03T09:00:33.999Z</time>
      </trkpt>
      <trkpt lat="47.378061" lon="8.573273">
        <ele>601.637457</ele>
        <time>2022-05-03T09:00:45.998Z</time>
      </trkpt>
      <trkpt lat="47.378001" lon="8.573373">
        <ele>601.637457</ele>
        <time>2022-05-03T09:00:51.998Z</time>
      </trkpt>
      <trkpt lat="47.377931" lon="8.573477">
        <ele>601.650205</ele>
        <time>2022-05-03T09:00:59.998Z</time>
      </trkpt>
      <trkpt lat="47.377880" lon="8.573588">
        <ele>602.065298</ele>
        <time>2022-05-03T09:01:08.000Z</time>
      </trkpt>
      <trkpt lat="47.377840" lon="8.573716">
        <ele>602.501536</ele>
        <time>2022-05-03T09:01:15.999Z</time>
      </trkpt>
      <trkpt lat="47.377791" lon="8.573838">
        <ele>602.940476</ele>
        <time>2022-05-03T09:01:24.000Z</time>
      </trkpt>
      <trkpt lat="47.377741" lon="8.573960">
        <ele>603.381765</ele>
        <time>2022-05-03T09:01:29.999Z</time>
      </trkpt>
      <trkpt lat="47.377699" lon="8.574095">
        <ele>603.841504</ele>
        <time>2022-05-03T09:01:37.999Z</time>
      </trkpt>
      <trkpt lat="47.377679" lon="8.574229">
        <ele>604.266120</ele>
        <time>2022-05-03T09:01:44.999Z</time>
      </trkpt>
      <trkpt lat="47.377697" lon="8.574378">
        <ele>604.734481</ele>
        <time>2022-05-03T09:01:53.999Z</time>
      </trkpt>
      <trkpt lat="47.377759" lon="8.574498">
        <ele>605.201566</ele>
        <time>2022-05-03T09:02:00.999Z</time>
      </trkpt>
      <trkpt lat="47.377824" lon="8.574607">
        <ele>605.651013</ele>
        <time>2022-05-03T09:02:10.999Z</time>
      </trkpt>
      <trkpt lat="47.377918" lon="8.574645">
        <ele>606.096380</ele>
        <time>2022-05-03T09:02:18.999Z</time>
      </trkpt>
      <trkpt lat="47.378006" lon="8.574681">
        <ele>606.513668</ele>
        <time>2022-05-03T09:02:26.999Z</time>
      </trkpt>
      <trkpt lat="47.378095" lon="8.574733">
        <ele>606.951056</ele>
        <time>2022-05-03T09:02:35.999Z</time>
      </trkpt>
      <trkpt lat="47.378173" lon="8.574823">
        <ele>607.403402</ele>
        <time>2022-05-03T09:02:42.998Z</time>
      </trkpt>
      <trkpt lat="47.378252" lon="8.574908">
        <ele>607.850075</ele>
        <time>2022-05-03T09:02:51.998Z</time>
      </trkpt>
      <trkpt lat="47.378324" lon="8.574994">
        <ele>608.273254</ele>
        <time>2022-05-03T09:02:59.998Z</time>
      </trkpt>
      <trkpt lat="47.378381" lon="8.575129">
        <ele>608.765562</ele>
        <time>2022-05-03T09:03:06.998Z</time>
      </trkpt>
      <trkpt lat="47.378416" lon="8.575256">
        <ele>609.189859</ele>
        <time>2022-05-03T09:03:14.000Z</time>
      </trkpt>
      <trkpt lat="47.378467" lon="8.575373">
        <ele>609.620438</ele>
        <time>2022-05-03T09:03:19.999Z</time>
      </trkpt>
      <trkpt lat="47.378546" lon="8.575440">
        <ele>609.782664</ele>
        <time>2022-05-03T09:03:59.999Z</time>
      </trkpt>
      <trkpt lat="47.378617" lon="8.575559">
        <ele>609.580035</ele>
        <time>2022-05-03T09:04:06.999Z</time>
      </trkpt>
      <trkpt lat="47.378671" lon="8.575671">
        <ele>609.404379</ele>
        <time>2022-05-03T09:04:12.999Z</time>
      </trkpt>
      <trkpt lat="47.378733" lon="8.575777">
        <ele>609.225429</ele>
        <time>2022-05-03T09:04:18.999Z</time>
      </trkpt>
      <trkpt lat="47.378803" lon="8.575868">
        <ele>609.049477</ele>
        <time>2022-05-03T09:04:24.999Z</time>
      </trkpt>
      <trkpt lat="47.378869" lon="8.575964">
        <ele>608.874696</ele>
        <time>2022-05-03T09:04:32.999Z</time>
      </trkpt>
      <trkpt lat="47.378936" lon="8.576066">
        <ele>608.693144</ele>
        <time>2022-05-03T09:04:40.999Z</time>
      </trkpt>
      <trkpt lat="47.379001" lon="8.576168">
        <ele>608.514199</ele>
        <time>2022-05-03T09:04:48.998Z</time>
      </trkpt>
      <trkpt lat="47.379063" lon="8.576274">
        <ele>608.335249</ele>
        <time>2022-05-03T09:04:56.998Z</time>
      </trkpt>
      <trkpt lat="47.379149" lon="8.576367">
        <ele>608.134141</ele>
        <time>2022-05-03T09:05:05.998Z</time>
      </trkpt>
      <trkpt lat="47.379214" lon="8.576465">
        <ele>607.958883</ele>
        <time>2022-05-03T09:05:12.998Z</time>
      </trkpt>
      <trkpt lat="47.379280" lon="8.576564">
        <ele>607.781392</ele>
        <time>2022-05-03T09:05:19.000Z</time>
      </trkpt>
      <trkpt lat="47.379328" lon="8.576686">
        <ele>607.601128</ele>
        <time>2022-05-03T09:05:27.999Z</time>
      </trkpt>
      <trkpt lat="47.379401" lon="8.576784">
        <ele>607.414996</ele>
        <time>2022-05-03T09:05:33.999Z</time>
      </trkpt>
      <trkpt lat="47.379495" lon="8.576852">
        <ele>607.217510</ele>
        <time>2022-05-03T09:05:39.999Z</time>
      </trkpt>
      <trkpt lat="47.379568" lon="8.576944">
        <ele>607.036445</ele>
        <time>2022-05-03T09:05:46.999Z</time>
      </trkpt>
      <trkpt lat="47.379653" lon="8.576998">
        <ele>606.861865</ele>
        <time>2022-05-03T09:05:52.999Z</time>
      </trkpt>
      <trkpt lat="47.379727" lon="8.577092">
        <ele>606.677705</ele>
        <time>2022-05-03T09:06:01.999Z</time>
      </trkpt>
      <trkpt lat="47.379820" lon="8.577175">
        <ele>606.472689</ele>
        <time>2022-05-03T09:06:09.999Z</time>
      </trkpt>
      <trkpt lat="47.379890" lon="8.577304">
        <ele>606.152729</ele>
        <time>2022-05-03T09:06:17.999Z</time>
      </trkpt>
      <trkpt lat="47.379931" lon="8.577426">
        <ele>605.884986</ele>
        <time>2022-05-03T09:06:24.999Z</time>
      </trkpt>
      <trkpt lat="47.379982" lon="8.577541">
        <ele>605.614747</ele>
        <time>2022-05-03T09:06:34.998Z</time>
      </trkpt>
      <trkpt lat="47.380036" lon="8.577649">
        <ele>605.350831</ele>
        <time>2022-05-03T09:06:42.998Z</time>
      </trkpt>
      <trkpt lat="47.380100" lon="8.577757">
        <ele>605.068703</ele>
        <time>2022-05-03T09:06:50.998Z</time>
      </trkpt>
      <trkpt lat="47.380171" lon="8.577867">
        <ele>604.769962</ele>
        <time>2022-05-03T09:06:57.998Z</time>
      </trkpt>
      <trkpt lat="47.380192" lon="8.578014">
        <ele>604.474627</ele>
        <time>2022-05-03T09:07:09.998Z</time>
      </trkpt>
      <trkpt lat="47.380256" lon="8.578134">
        <ele>604.174344</ele>
        <time>2022-05-03T09:07:17.998Z</time>
      </trkpt>
      <trkpt lat="47.380334" lon="8.578208">
        <ele>603.905200</ele>
        <time>2022-05-03T09:07:24.000Z</time>
      </trkpt>
      <trkpt lat="47.380423" lon="8.578260">
        <ele>603.627334</ele>
        <time>2022-05-03T09:07:30.000Z</time>
      </trkpt>
      <trkpt lat="47.380508" lon="8.578331">
        <ele>603.343830</ele>
        <time>2022-05-03T09:07:35.999Z</time>
      </trkpt>
      <trkpt lat="47.380593" lon="8.578407">
        <ele>603.055361</ele>
        <time>2022-05-03T09:07:47.999Z</time>
      </trkpt>
      <trkpt lat="47.380649" lon="8.578518">
        <ele>602.783251</ele>
        <time>2022-05-03T09:07:56.999Z</time>
      </trkpt>
      <trkpt lat="47.380684" lon="8.578647">
        <ele>602.510065</ele>
        <time>2022-05-03T09:08:06.999Z</time>
      </trkpt>
      <trkpt lat="47.380747" lon="8.578743">
        <ele>602.247262</ele>
        <time>2022-05-03T09:08:13.999Z</time>
      </trkpt>
      <trkpt lat="47.380825" lon="8.578825">
        <ele>601.969303</ele>
        <time>2022-05-03T09:08:23.999Z</time>
      </trkpt>
      <trkpt lat="47.380906" lon="8.578903">
        <ele>601.688575</ele>
        <time>2022-05-03T09:08:31.999Z</time>
      </trkpt>
      <trkpt lat="47.380938" lon="8.579031">
        <ele>601.420353</ele>
        <time>2022-05-03T09:08:36.999Z</time>
      </trkpt>
      <trkpt lat="47.380969" lon="8.579173">
        <ele>601.156860</ele>
        <time>2022-05-03T09:08:42.999Z</time>
      </trkpt>
      <trkpt lat="47.380991" lon="8.579306">
        <ele>600.957701</ele>
        <time>2022-05-03T09:08:50.999Z</time>
      </trkpt>
      <trkpt lat="47.381029" lon="8.579432">
        <ele>600.757056</ele>
        <time>2022-05-03T09:09:00.998Z</time>
      </trkpt>
      <trkpt lat="47.381047" lon="8.579578">
        <ele>600.541184</ele>
        <time>2022-05-03T09:09:09.998Z</time>
      </trkpt>
      <trkpt lat="47.381091" lon="8.579713">
        <ele>600.323240</ele>
        <time>2022-05-03T09:09:16.998Z</time>
      </trkpt>
      <trkpt lat="47.381094" lon="8.579857">
        <ele>600.113671</ele>
        <time>2022-05-03T09:09:27.000Z</time>
      </trkpt>
      <trkpt lat="47.381095" lon="8.580009">
        <ele>599.892553</ele>
        <time>2022-05-03T09:09:34.999Z</time>
      </trkpt>
      <trkpt lat="47.381110" lon="8.580148">
        <ele>599.687804</ele>
        <time>2022-05-03T09:09:42.999Z</time>
      </trkpt>
      <trkpt lat="47.381124" lon="8.580296">
        <ele>599.470424</ele>
        <time>2022-05-03T09:09:50.999Z</time>
      </trkpt>
      <trkpt lat="47.381097" lon="8.580428">
        <ele>599.269840</ele>
        <time>2022-05-03T09:09:57.999Z</time>
      </trkpt>
      <trkpt lat="47.381057" lon="8.580547">
        <ele>599.076580</ele>
        <time>2022-05-03T09:10:05.999Z</time>
      </trkpt>
      <trkpt lat="47.380992" lon="8.580641">
        <ele>598.881141</ele>
        <time>2022-05-03T09:10:16.999Z</time>
      </trkpt>
      <trkpt lat="47.380924" lon="8.580743">
        <ele>598.672920</ele>
        <time>2022-05-03T09:10:23.999Z</time>
      </trkpt>
      <trkpt lat="47.380942" lon="8.580890">
        <ele>598.455617</ele>
        <time>2022-05-03T09:10:28.999Z</time>
      </trkpt>
      <trkpt lat="47.380953" lon="8.581022">
        <ele>598.262153</ele>
        <time>2022-05-03T09:10:34.999Z</time>
      </trkpt>
      <trkpt lat="47.380944" lon="8.581157">
        <ele>598.064825</ele>
        <time>2022-05-03T09:10:40.998Z</time>
      </trkpt>
      <trkpt lat="47.380909" lon="8.581291">
        <ele>597.855901</ele>
        <time>2022-05-03T09:10:47.998Z</time>
      </trkpt>
      <trkpt lat="47.380861" lon="8.581425">
        <ele>597.635381</ele>
        <time>2022-05-03T09:10:54.998Z</time>
      </trkpt>
      <trkpt lat="47.380769" lon="8.581484">
        <ele>597.419907</ele>
        <time>2022-05-03T09:11:09.998Z</time>
      </trkpt>
      <trkpt lat="47.380732" lon="8.581619">
        <ele>597.355554</ele>
        <time>2022-05-03T09:11:15.998Z</time>
      </trkpt>
      <trkpt lat="47.380727" lon="8.581778">
        <ele>597.325406</ele>
        <time>2022-05-03T09:11:21.998Z</time>
      </trkpt>
      <trkpt lat="47.380708" lon="8.581910">
        <ele>597.299846</ele>
        <time>2022-05-03T09:11:30.998Z</time>
      </trkpt>
      <trkpt lat="47.380669" lon="8.582034">
        <ele>597.273949</ele>
        <time>2022-05-03T09:11:40.999Z</time>
      </trkpt>
      <trkpt lat="47.380648" lon="8.582179">
        <ele>597.245864</ele>
        <time>2022-05-03T09:11:48.999Z</time>
      </trkpt>
      <trkpt lat="47.380631" lon="8.582325">
        <ele>597.217805</ele>
        <time>2022-05-03T09:11:57.999Z</time>
      </trkpt>
      <trkpt lat="47.380640" lon="8.582460">
        <ele>597.192112</ele>
        <time>2022-05-03T09:12:04.999Z</time>
      </trkpt>
      <trkpt lat="47.380654" lon="8.582614">
        <ele>597.162681</ele>
        <time>2022-05-03T09:12:16.999Z</time>
      </trkpt>
      <trkpt lat="47.380738" lon="8.582673">
        <ele>597.136663</ele>
        <time>2022-05-03T09:12:26.999Z</time>
      </trkpt>
      <trkpt lat="47.380830" lon="8.582716">
        <ele>597.109670</ele>
        <time>2022-05-03T09:12:41.999Z</time>
      </trkpt>
      <trkpt lat="47.380916" lon="8.582811">
        <ele>597.079629</ele>
        <time>2022-05-03T09:12:50.998Z</time>
      </trkpt>
      <trkpt lat="47.381010" lon="8.582822">
        <ele>597.053253</ele>
        <time>2022-05-03T09:12:58.998Z</time>
      </trkpt>
      <trkpt lat="47.381105" lon="8.582821">
        <ele>597.026679</ele>
        <time>2022-05-03T09:13:04.998Z</time>
      </trkpt>
      <trkpt lat="47.381214" lon="8.582818">
        <ele>596.996184</ele>
        <time>2022-05-03T09:13:11.998Z</time>
      </trkpt>
      <trkpt lat="47.381311" lon="8.582809">
        <ele>596.968998</ele>
        <time>2022-05-03T09:13:15.998Z</time>
      </trkpt>
      <trkpt lat="47.381416" lon="8.582814">
        <ele>596.939612</ele>
        <time>2022-05-03T09:13:21.998Z</time>
      </trkpt>
      <trkpt lat="47.381500" lon="8.582759">
        <ele>596.913909</ele>
        <time>2022-05-03T09:13:27.998Z</time>
      </trkpt>
      <trkpt lat="47.381588" lon="8.582701">
        <ele>596.886954</ele>
        <time>2022-05-03T09:13:35.998Z</time>
      </trkpt>
      <trkpt lat="47.381695" lon="8.582733">
        <ele>596.776805</ele>
        <time>2022-05-03T09:13:43.000Z</time>
      </trkpt>
      <trkpt lat="47.381785" lon="8.582796">
        <ele>596.626405</ele>
        <time>2022-05-03T09:13:53.999Z</time>
      </trkpt>
      <trkpt lat="47.381848" lon="8.582911">
        <ele>596.475153</ele>
        <time>2022-05-03T09:14:00.999Z</time>
      </trkpt>
      <trkpt lat="47.381834" lon="8.582776">
        <ele>596.335509</ele>
        <time>2022-05-03T09:14:10.999Z</time>
      </trkpt>
      <trkpt lat="47.381778" lon="8.582659">
        <ele>596.189007</ele>
        <time>2022-05-03T09:14:21.999Z</time>
      </trkpt>
      <trkpt lat="47.381685" lon="8.582582">
        <ele>596.028007</ele>
        <time>2022-05-03T09:14:29.999Z</time>
      </trkpt>
      <trkpt lat="47.381602" lon="8.582531">
        <ele>595.892256</ele>
        <time>2022-05-03T09:14:36.999Z</time>
      </trkpt>
      <trkpt lat="47.381510" lon="8.582523">
        <ele>595.753089</ele>
        <time>2022-05-03T09:14:43.999Z</time>
      </trkpt>
      <trkpt lat="47.381410" lon="8.582538">
        <ele>595.601305</ele>
        <time>2022-05-03T09:14:48.998Z</time>
      </trkpt>
      <trkpt lat="47.381318" lon="8.582619">
        <ele>595.439564</ele>
        <time>2022-05-03T09:14:53.998Z</time>
      </trkpt>
      <trkpt lat="47.381232" lon="8.582679">
        <ele>595.295936</ele>
        <time>2022-05-03T09:14:59.998Z</time>
      </trkpt>
      <trkpt lat="47.381144" lon="8.582713">
        <ele>595.158577</ele>
        <time>2022-05-03T09:15:06.998Z</time>
      </trkpt>
      <trkpt lat="47.381045" lon="8.582751">
        <ele>595.004113</ele>
        <time>2022-05-03T09:15:14.998Z</time>
      </trkpt>
      <trkpt lat="47.380945" lon="8.582731">
        <ele>594.851728</ele>
        <time>2022-05-03T09:15:21.998Z</time>
      </trkpt>
      <trkpt lat="47.380854" lon="8.582662">
        <ele>594.697257</ele>
        <time>2022-05-03T09:15:26.998Z</time>
      </trkpt>
      <trkpt lat="47.380759" lon="8.582641">
        <ele>594.552203</ele>
        <time>2022-05-03T09:15:35.998Z</time>
      </trkpt>
      <trkpt lat="47.380696" lon="8.582542">
        <ele>594.413286</ele>
        <time>2022-05-03T09:16:33.999Z</time>
      </trkpt>
      <trkpt lat="47.380631" lon="8.582449">
        <ele>594.276622</ele>
        <time>2022-05-03T09:16:42.999Z</time>
      </trkpt>
      <trkpt lat="47.380636" lon="8.582313">
        <ele>594.198045</ele>
        <time>2022-05-03T09:16:52.999Z</time>
      </trkpt>
      <trkpt lat="47.380658" lon="8.582180">
        <ele>594.461121</ele>
        <time>2022-05-03T09:17:01.999Z</time>
      </trkpt>
      <trkpt lat="47.380702" lon="8.582059">
        <ele>594.725030</ele>
        <time>2022-05-03T09:17:10.998Z</time>
      </trkpt>
      <trkpt lat="47.380742" lon="8.581935">
        <ele>594.988954</ele>
        <time>2022-05-03T09:17:18.998Z</time>
      </trkpt>
      <trkpt lat="47.380718" lon="8.581803">
        <ele>595.251577</ele>
        <time>2022-05-03T09:17:27.998Z</time>
      </trkpt>
      <trkpt lat="47.380748" lon="8.581663">
        <ele>595.533738</ele>
        <time>2022-05-03T09:17:42.998Z</time>
      </trkpt>
      <trkpt lat="47.380765" lon="8.581529">
        <ele>595.795700</ele>
        <time>2022-05-03T09:17:49.998Z</time>
      </trkpt>
      <trkpt lat="47.380776" lon="8.581396">
        <ele>596.053160</ele>
        <time>2022-05-03T09:18:14.999Z</time>
      </trkpt>
      <trkpt lat="47.380686" lon="8.581378">
        <ele>596.310889</ele>
        <time>2022-05-03T09:22:22.999Z</time>
      </trkpt>
      <trkpt lat="47.380781" lon="8.581372">
        <ele>596.580721</ele>
        <time>2022-05-03T09:22:43.999Z</time>
      </trkpt>
      <trkpt lat="47.380844" lon="8.581268">
        <ele>596.848856</ele>
        <time>2022-05-03T09:23:26.998Z</time>
      </trkpt>
      <trkpt lat="47.380908" lon="8.581165">
        <ele>597.117473</ele>
        <time>2022-05-03T09:23:34.998Z</time>
      </trkpt>
      <trkpt lat="47.380960" lon="8.581042">
        <ele>597.396101</ele>
        <time>2022-05-03T09:23:42.998Z</time>
      </trkpt>
      <trkpt lat="47.380953" lon="8.580898">
        <ele>597.673509</ele>
        <time>2022-05-03T09:23:50.998Z</time>
      </trkpt>
      <trkpt lat="47.380967" lon="8.580758">
        <ele>597.945436</ele>
        <time>2022-05-03T09:24:00.998Z</time>
      </trkpt>
      <trkpt lat="47.380996" lon="8.580616">
        <ele>598.230430</ele>
        <time>2022-05-03T09:24:08.999Z</time>
      </trkpt>
      <trkpt lat="47.381036" lon="8.580496">
        <ele>598.487435</ele>
        <time>2022-05-03T09:24:16.999Z</time>
      </trkpt>
      <trkpt lat="47.381071" lon="8.580355">
        <ele>598.775997</ele>
        <time>2022-05-03T09:24:24.999Z</time>
      </trkpt>
      <trkpt lat="47.381077" lon="8.580211">
        <ele>599.053216</ele>
        <time>2022-05-03T09:24:33.999Z</time>
      </trkpt>
      <trkpt lat="47.381095" lon="8.580077">
        <ele>599.310126</ele>
        <time>2022-05-03T09:24:40.999Z</time>
      </trkpt>
      <trkpt lat="47.381087" lon="8.579921">
        <ele>599.579150</ele>
        <time>2022-05-03T09:24:48.999Z</time>
      </trkpt>
      <trkpt lat="47.381062" lon="8.579774">
        <ele>599.839781</ele>
        <time>2022-05-03T09:24:55.999Z</time>
      </trkpt>
      <trkpt lat="47.381026" lon="8.579640">
        <ele>600.087680</ele>
        <time>2022-05-03T09:25:02.999Z</time>
      </trkpt>
      <trkpt lat="47.380999" lon="8.579492">
        <ele>600.351254</ele>
        <time>2022-05-03T09:25:09.999Z</time>
      </trkpt>
      <trkpt lat="47.380946" lon="8.579372">
        <ele>600.597622</ele>
        <time>2022-05-03T09:25:16.999Z</time>
      </trkpt>
      <trkpt lat="47.380939" lon="8.579239">
        <ele>600.827018</ele>
        <time>2022-05-03T09:25:23.999Z</time>
      </trkpt>
      <trkpt lat="47.380908" lon="8.579113">
        <ele>601.057546</ele>
        <time>2022-05-03T09:25:30.999Z</time>
      </trkpt>
      <trkpt lat="47.380896" lon="8.578972">
        <ele>601.301916</ele>
        <time>2022-05-03T09:25:37.998Z</time>
      </trkpt>
      <trkpt lat="47.380852" lon="8.578845">
        <ele>601.547231</ele>
        <time>2022-05-03T09:25:45.998Z</time>
      </trkpt>
      <trkpt lat="47.380755" lon="8.578784">
        <ele>601.814972</ele>
        <time>2022-05-03T09:25:51.998Z</time>
      </trkpt>
      <trkpt lat="47.380663" lon="8.578729">
        <ele>602.067029</ele>
        <time>2022-05-03T09:25:59.998Z</time>
      </trkpt>
      <trkpt lat="47.380619" lon="8.578606">
        <ele>602.306242</ele>
        <time>2022-05-03T09:26:08.998Z</time>
      </trkpt>
      <trkpt lat="47.380578" lon="8.578484">
        <ele>602.540452</ele>
        <time>2022-05-03T09:26:16.999Z</time>
      </trkpt>
      <trkpt lat="47.380519" lon="8.578372">
        <ele>602.784467</ele>
        <time>2022-05-03T09:26:24.999Z</time>
      </trkpt>
      <trkpt lat="47.380461" lon="8.578250">
        <ele>603.040803</ele>
        <time>2022-05-03T09:26:29.999Z</time>
      </trkpt>
      <trkpt lat="47.380386" lon="8.578169">
        <ele>603.276767</ele>
        <time>2022-05-03T09:26:36.999Z</time>
      </trkpt>
      <trkpt lat="47.380301" lon="8.578098">
        <ele>603.524766</ele>
        <time>2022-05-03T09:26:42.999Z</time>
      </trkpt>
      <trkpt lat="47.380211" lon="8.578044">
        <ele>603.771470</ele>
        <time>2022-05-03T09:26:49.999Z</time>
      </trkpt>
      <trkpt lat="47.380150" lon="8.577929">
        <ele>604.054438</ele>
        <time>2022-05-03T09:26:57.999Z</time>
      </trkpt>
      <trkpt lat="47.380077" lon="8.577831">
        <ele>604.346337</ele>
        <time>2022-05-03T09:27:05.999Z</time>
      </trkpt>
      <trkpt lat="47.380006" lon="8.577727">
        <ele>604.642223</ele>
        <time>2022-05-03T09:27:12.999Z</time>
      </trkpt>
      <trkpt lat="47.379961" lon="8.577595">
        <ele>604.938314</ele>
        <time>2022-05-03T09:27:24.998Z</time>
      </trkpt>
      <trkpt lat="47.379880" lon="8.577505">
        <ele>605.238237</ele>
        <time>2022-05-03T09:27:34.998Z</time>
      </trkpt>
      <trkpt lat="47.379821" lon="8.577402">
        <ele>605.508535</ele>
        <time>2022-05-03T09:27:44.998Z</time>
      </trkpt>
      <trkpt lat="47.379779" lon="8.577273">
        <ele>605.795314</ele>
        <time>2022-05-03T09:29:08.999Z</time>
      </trkpt>
      <trkpt lat="47.379752" lon="8.577141">
        <ele>606.071583</ele>
        <time>2022-05-03T09:29:15.999Z</time>
      </trkpt>
      <trkpt lat="47.379672" lon="8.577049">
        <ele>606.371592</ele>
        <time>2022-05-03T09:29:24.999Z</time>
      </trkpt>
      <trkpt lat="47.379589" lon="8.576946">
        <ele>606.692368</ele>
        <time>2022-05-03T09:29:31.998Z</time>
      </trkpt>
      <trkpt lat="47.379495" lon="8.576889">
        <ele>606.993032</ele>
        <time>2022-05-03T09:29:36.998Z</time>
      </trkpt>
      <trkpt lat="47.379444" lon="8.576776">
        <ele>607.265112</ele>
        <time>2022-05-03T09:29:43.998Z</time>
      </trkpt>
      <trkpt lat="47.379365" lon="8.576678">
        <ele>607.570383</ele>
        <time>2022-05-03T09:29:52.998Z</time>
      </trkpt>
      <trkpt lat="47.379300" lon="8.576571">
        <ele>607.858389</ele>
        <time>2022-05-03T09:29:59.998Z</time>
      </trkpt>
      <trkpt lat="47.379283" lon="8.576440">
        <ele>608.125630</ele>
        <time>2022-05-03T09:30:08.998Z</time>
      </trkpt>
      <trkpt lat="47.379223" lon="8.576331">
        <ele>608.407072</ele>
        <time>2022-05-03T09:30:16.998Z</time>
      </trkpt>
      <trkpt lat="47.379160" lon="8.576227">
        <ele>608.686652</ele>
        <time>2022-05-03T09:30:24.998Z</time>
      </trkpt>
      <trkpt lat="47.379092" lon="8.576133">
        <ele>608.962245</ele>
        <time>2022-05-03T09:30:31.000Z</time>
      </trkpt>
      <trkpt lat="47.379020" lon="8.576026">
        <ele>609.136170</ele>
        <time>2022-05-03T09:30:38.999Z</time>
      </trkpt>
      <trkpt lat="47.378956" lon="8.575906">
        <ele>609.092508</ele>
        <time>2022-05-03T09:30:46.999Z</time>
      </trkpt>
      <trkpt lat="47.378889" lon="8.575808">
        <ele>609.052702</ele>
        <time>2022-05-03T09:30:54.999Z</time>
      </trkpt>
      <trkpt lat="47.378815" lon="8.575731">
        <ele>609.014490</ele>
        <time>2022-05-03T09:31:00.999Z</time>
      </trkpt>
      <trkpt lat="47.378757" lon="8.575618">
        <ele>608.973960</ele>
        <time>2022-05-03T09:31:08.999Z</time>
      </trkpt>
      <trkpt lat="47.378694" lon="8.575496">
        <ele>608.930105</ele>
        <time>2022-05-03T09:31:16.999Z</time>
      </trkpt>
      <trkpt lat="47.378631" lon="8.575390">
        <ele>608.889791</ele>
        <time>2022-05-03T09:31:27.999Z</time>
      </trkpt>
      <trkpt lat="47.378696" lon="8.575293">
        <ele>608.850783</ele>
        <time>2022-05-03T09:31:47.998Z</time>
      </trkpt>
      <trkpt lat="47.378654" lon="8.575147">
        <ele>608.805441</ele>
        <time>2022-05-03T09:31:54.998Z</time>
      </trkpt>
      <trkpt lat="47.378612" lon="8.575014">
        <ele>608.763494</ele>
        <time>2022-05-03T09:32:03.998Z</time>
      </trkpt>
      <trkpt lat="47.378528" lon="8.574889">
        <ele>608.713156</ele>
        <time>2022-05-03T09:32:14.998Z</time>
      </trkpt>
      <trkpt lat="47.378462" lon="8.574796">
        <ele>608.674649</ele>
        <time>2022-05-03T09:32:20.998Z</time>
      </trkpt>
      <trkpt lat="47.378415" lon="8.574666">
        <ele>608.632525</ele>
        <time>2022-05-03T09:32:27.998Z</time>
      </trkpt>
      <trkpt lat="47.378354" lon="8.574564">
        <ele>608.593627</ele>
        <time>2022-05-03T09:32:33.000Z</time>
      </trkpt>
      <trkpt lat="47.378269" lon="8.574514">
        <ele>608.555005</ele>
        <time>2022-05-03T09:32:40.999Z</time>
      </trkpt>
      <trkpt lat="47.378198" lon="8.574417">
        <ele>608.514176</ele>
        <time>2022-05-03T09:32:48.000Z</time>
      </trkpt>
      <trkpt lat="47.378123" lon="8.574316">
        <ele>608.471331</ele>
        <time>2022-05-03T09:32:53.999Z</time>
      </trkpt>
      <trkpt lat="47.378034" lon="8.574193">
        <ele>608.419877</ele>
        <time>2022-05-03T09:33:02.999Z</time>
      </trkpt>
      <trkpt lat="47.378083" lon="8.574079">
        <ele>608.392948</ele>
        <time>2022-05-03T09:33:32.999Z</time>
      </trkpt>
      <trkpt lat="47.378172" lon="8.574034">
        <ele>608.392948</ele>
        <time>2022-05-03T09:33:39.999Z</time>
      </trkpt>
      <trkpt lat="47.378244" lon="8.573955">
        <ele>608.392948</ele>
        <time>2022-05-03T09:33:47.998Z</time>
      </trkpt>
      <trkpt lat="47.378334" lon="8.573862">
        <ele>608.392948</ele>
        <time>2022-05-03T09:33:52.998Z</time>
      </trkpt>
      <trkpt lat="47.378420" lon="8.573775">
        <ele>608.392948</ele>
        <time>2022-05-03T09:33:59.998Z</time>
      </trkpt>
      <trkpt lat="47.378500" lon="8.573706">
        <ele>608.392948</ele>
        <time>2022-05-03T09:34:08.998Z</time>
      </trkpt>
      <trkpt lat="47.378578" lon="8.573615">
        <ele>608.392948</ele>
        <time>2022-05-03T09:34:17.998Z</time>
      </trkpt>
      <trkpt lat="47.378644" lon="8.573523">
        <ele>608.392948</ele>
        <time>2022-05-03T09:34:23.998Z</time>
      </trkpt>
      <trkpt lat="47.378724" lon="8.573445">
        <ele>608.392948</ele>
        <time>2022-05-03T09:34:30.998Z</time>
      </trkpt>
      <trkpt lat="47.378796" lon="8.573364">
        <ele>608.392948</ele>
        <time>2022-05-03T09:34:36.998Z</time>
      </trkpt>
      <trkpt lat="47.378863" lon="8.573268">
        <ele>608.392948</ele>
        <time>2022-05-03T09:34:43.000Z</time>
      </trkpt>
    </trkseg>
  </trk>
</gpx>